Prairie, Mississippi
Current Conditions -  °F | °C
As of 1:55 PM on Tuesday 21 Oct 2014 (Local Time) from KM40 Reporting Station
Clear Clear  
Wind Chill: 82°   Ceiling: Unl
Heat Index: 84°   Visibility: 9mi
Dew Point: 64°   Wind: 9mph
Humidity: 54%   Direction: 330°NNW
Pressure: 30.04"   Gusts: NA
Location:  33.8°N, 88.67°W
Report Text: KM40 211855Z AUTO 33008KT 9SM CLR 28/18 A3004 RMK AO2
Loading
Personal Weather Stations






























Interactive Weather Map
Tropical Storm Tracking
New forecast layout! Learn more

10-Day Weather Forecast

Advertisements
Track Severe Weather on mobile